createdAt,value
2019-01-25T00:01:33.237Z,21.2
2019-01-25T00:02:23.014Z,21.3
2019-01-25T00:03:19.282Z,21.4
2019-01-25T00:04:02.854Z,21.4
2019-01-25T00:04:53.819Z,21.5
2019-01-25T00:05:42.697Z,21.6
2019-01-25T00:06:32.742Z,21.6
2019-01-25T00:07:23.336Z,21.7
2019-01-25T00:08:13.729Z,21.7
2019-01-25T00:09:03.221Z,21.3
2019-01-25T00:10:01.282Z,20.8
2019-01-25T00:10:43.584Z,20.3
2019-01-25T00:11:33.406Z,20.1
2019-01-25T00:12:23.985Z,19.8
2019-01-25T00:13:14.023Z,19.6
2019-01-25T00:14:03.841Z,19.4
2019-01-25T00:14:53.866Z,19.3
2019-01-25T00:15:43.429Z,19.1
2019-01-25T00:16:34.001Z,19.1
2019-01-25T00:17:24.309Z,18.9
2019-01-25T00:18:14.401Z,18.8
2019-01-25T00:19:04.781Z,18.8
2019-01-25T00:19:54.496Z,18.6
2019-01-25T00:20:44.571Z,18.8
2019-01-25T00:21:34.671Z,19.3
2019-01-25T00:22:24.990Z,19.6
2019-01-25T00:23:15.258Z,19.9
2019-01-25T00:24:06.676Z,20.1
2019-01-25T00:24:55.641Z,20.4
2019-01-25T00:25:44.893Z,20.5
2019-01-25T00:26:34.960Z,20.7
2019-01-25T00:27:25.075Z,20.8
2019-01-25T00:28:14.557Z,20.9
2019-01-25T00:29:06.008Z,21
2019-01-25T00:30:45.576Z,21.2
2019-01-25T00:31:36.925Z,21.3
2019-01-25T00:32:25.620Z,21.3
2019-01-25T00:33:15.708Z,21.4
2019-01-25T00:34:05.192Z,21.5
2019-01-25T00:34:56.349Z,21.6
2019-01-25T00:35:45.937Z,21.6
2019-01-25T00:36:35.695Z,21.6
2019-01-25T00:37:26.277Z,21.7
2019-01-25T00:38:15.508Z,21.4
2019-01-25T00:39:05.554Z,20.9
2019-01-25T00:39:55.060Z,20.5
2019-01-25T00:40:47.247Z,20.2
2019-01-25T00:41:36.262Z,19.9
2019-01-25T00:42:25.777Z,19.7
2019-01-25T00:43:16.167Z,19.5
2019-01-25T00:44:05.595Z,19.3
2019-01-25T00:44:56.256Z,19.2
2019-01-25T00:45:46.558Z,19.1
2019-01-25T00:46:36.321Z,18.9
2019-01-25T00:47:26.139Z,18.9
2019-01-25T00:48:15.631Z,18.8
2019-01-25T00:49:06.228Z,18.6
2019-01-25T00:49:56.844Z,18.6
2019-01-25T00:50:46.609Z,19.1
2019-01-25T00:51:36.452Z,19.4
2019-01-25T00:52:26.731Z,19.8
2019-01-25T00:53:17.356Z,20
2019-01-25T00:54:06.324Z,20.3
2019-01-25T00:54:55.820Z,20.4
2019-01-25T00:55:47.281Z,20.6
2019-01-25T00:56:36.538Z,20.7
2019-01-25T00:57:26.528Z,20.8
2019-01-25T00:58:17.916Z,20.6
2019-01-25T00:59:07.241Z,20.2
2019-01-25T00:59:57.531Z,19.4
2019-01-25T01:00:47.338Z,18.9
2019-01-25T01:01:37.136Z,18.4
2019-01-25T01:02:28.000Z,17.8
2019-01-25T01:03:17.776Z,17.1
2019-01-25T01:04:07.303Z,16.9
2019-01-25T01:04:57.628Z,16.9
2019-01-25T01:05:47.663Z,17.4
2019-01-25T01:06:38.015Z,18
2019-01-25T01:07:28.052Z,18.6
2019-01-25T01:08:17.645Z,19
2019-01-25T01:09:08.775Z,19.4
2019-01-25T01:09:58.230Z,19.8
2019-01-25T01:10:48.670Z,20.1
2019-01-25T01:11:38.100Z,20.2
2019-01-25T01:12:28.112Z,20.4
2019-01-25T01:13:18.202Z,20.6
2019-01-25T01:14:08.819Z,20.7
2019-01-25T01:14:58.857Z,20.8
2019-01-25T01:15:48.647Z,21
2019-01-25T01:16:38.957Z,21.1
2019-01-25T01:17:29.307Z,21.2
2019-01-25T01:18:18.290Z,21.3
2019-01-25T01:19:08.847Z,21.4
2019-01-25T01:19:58.939Z,21.4
2019-01-25T01:20:49.012Z,21.6
2019-01-25T01:21:38.739Z,21.6
2019-01-25T01:22:28.817Z,21.7
2019-01-25T01:23:18.905Z,21.8
2019-01-25T01:24:09.245Z,21.5
2019-01-25T01:24:59.527Z,20.9
2019-01-25T01:25:49.331Z,20.5
2019-01-25T01:26:39.122Z,20.2
2019-01-25T01:27:29.749Z,19.9
2019-01-25T01:28:19.511Z,19.7
2019-01-25T01:29:09.566Z,19.5
2019-01-25T01:29:58.793Z,19.3
2019-01-25T01:30:49.959Z,19.2
2019-01-25T01:31:39.474Z,19.1
2019-01-25T01:32:29.224Z,18.9
2019-01-25T01:33:19.830Z,18.9
2019-01-25T01:34:09.424Z,18.8
2019-01-25T01:34:59.928Z,18.6
2019-01-25T01:36:40.051Z,19.2
2019-01-25T01:37:29.858Z,19.6
2019-01-25T01:38:20.206Z,19.9
2019-01-25T01:39:09.133Z,20.1
2019-01-25T01:39:59.806Z,20.3
2019-01-25T01:40:50.661Z,20.6
2019-01-25T01:41:40.184Z,20.7
2019-01-25T01:42:30.821Z,20.8
2019-01-25T01:43:19.701Z,20.9
2019-01-25T01:44:09.778Z,21.1
2019-01-25T01:45:50.150Z,21.3
2019-01-25T01:46:41.076Z,21.3
2019-01-25T01:47:30.263Z,21.4
2019-01-25T01:48:20.325Z,21.5
2019-01-25T01:49:10.432Z,21.5
2019-01-25T01:50:00.738Z,21.6
2019-01-25T01:50:50.239Z,21.6
2019-01-25T01:51:41.407Z,21.7
2019-01-25T01:52:30.612Z,21.4
2019-01-25T01:53:20.960Z,20.9
2019-01-25T01:54:11.282Z,20.5
2019-01-25T01:55:01.398Z,20.2
2019-01-25T01:55:51.991Z,19.9
2019-01-25T01:56:40.970Z,19.6
2019-01-25T01:57:31.804Z,19.4
2019-01-25T01:58:21.562Z,19.3
2019-01-25T01:59:11.925Z,19.2
2019-01-25T02:00:00.922Z,19.1
2019-01-25T02:00:51.732Z,18.9
2019-01-25T02:01:41.326Z,18.8
2019-01-25T02:02:31.589Z,18.8
2019-01-25T02:03:21.355Z,18.6
2019-01-25T02:04:11.764Z,18.5
2019-01-25T02:05:01.776Z,18.8
2019-01-25T02:05:51.649Z,19.3
2019-01-25T02:06:41.882Z,19.6
2019-01-25T02:07:31.929Z,19.9
2019-01-25T02:08:22.039Z,20.2
2019-01-25T02:09:12.063Z,20.4
2019-01-25T02:10:01.946Z,20.5
2019-01-25T02:10:52.439Z,20.7
2019-01-25T02:11:42.236Z,20.8
2019-01-25T02:12:32.251Z,20.9
2019-01-25T02:13:22.611Z,21
2019-01-25T02:14:12.888Z,21.1
2019-01-25T02:15:02.778Z,21.2
2019-01-25T02:15:51.715Z,21.3
2019-01-25T02:16:42.571Z,21.3
2019-01-25T02:17:32.870Z,21.4
2019-01-25T02:18:23.245Z,21.4
2019-01-25T02:19:13.052Z,21.5
2019-01-25T02:20:03.083Z,21.6
2019-01-25T02:20:52.873Z,21.6
2019-01-25T02:21:42.910Z,21.6
2019-01-25T02:22:33.338Z,21.3
2019-01-25T02:23:23.311Z,20.8
2019-01-25T02:24:13.115Z,20.4
2019-01-25T02:25:03.425Z,20.1
2019-01-25T02:25:53.243Z,19.8
2019-01-25T02:26:42.680Z,19.6
2019-01-25T02:27:33.320Z,19.4
2019-01-25T02:28:23.380Z,19.3
2019-01-25T02:29:13.714Z,19.1
2019-01-25T02:30:03.936Z,19
2019-01-25T02:30:53.333Z,18.9
2019-01-25T02:31:43.731Z,18.8
2019-01-25T02:33:24.417Z,18.5
2019-01-25T02:34:14.092Z,18.6
2019-01-25T02:35:03.942Z,19
2019-01-25T02:35:54.532Z,19.4
2019-01-25T02:36:44.089Z,19.7
2019-01-25T02:37:34.442Z,19.9
2019-01-25T02:38:23.598Z,20.2
2019-01-25T02:39:14.205Z,20.4
2019-01-25T02:40:04.250Z,20.5
2019-01-25T02:40:54.042Z,20.6
2019-01-25T02:41:44.950Z,20.8
2019-01-25T02:42:36.437Z,20.4
2019-01-25T02:43:24.530Z,19.8
2019-01-25T02:44:14.012Z,19.2
2019-01-25T02:45:04.870Z,18.8
2019-01-25T02:45:54.649Z,18.2
2019-01-25T02:46:44.689Z,17.6
2019-01-25T02:47:34.197Z,16.9
2019-01-25T02:48:24.855Z,16.8
2019-01-25T02:49:14.852Z,16.8
2019-01-25T02:50:05.381Z,17.3
2019-01-25T02:50:53.874Z,17.9
2019-01-25T02:51:45.289Z,18.4
2019-01-25T02:52:35.404Z,18.9
2019-01-25T02:53:25.458Z,19.3
2019-01-25T02:54:15.188Z,19.8
2019-01-25T02:55:04.793Z,20
2019-01-25T02:55:54.765Z,20.2
2019-01-25T02:56:45.410Z,20.4
2019-01-25T02:57:35.768Z,20.6
2019-01-25T02:58:24.658Z,20.7
2019-01-25T02:59:15.826Z,20.8
2019-01-25T03:00:05.579Z,21
2019-01-25T03:00:55.981Z,21.1
2019-01-25T03:01:45.978Z,21.2
2019-01-25T03:02:36.411Z,21.3
2019-01-25T03:03:26.421Z,21.4
2019-01-25T03:04:16.744Z,21.5
2019-01-25T03:05:06.218Z,21.6
2019-01-25T03:08:39.275Z,21.4
2019-01-25T03:09:28.662Z,20.8
2019-01-25T03:10:19.032Z,20.4
2019-01-25T03:11:09.620Z,20.1
2019-01-25T03:11:59.089Z,19.8
2019-01-25T03:12:49.830Z,19.6
2019-01-25T03:13:39.538Z,19.4
2019-01-25T03:14:29.636Z,19.3
2019-01-25T03:15:19.659Z,19.2
2019-01-25T03:16:09.083Z,19
2019-01-25T03:16:58.580Z,18.9
2019-01-25T03:17:50.248Z,18.8
2019-01-25T03:18:39.573Z,18.8
2019-01-25T03:19:29.667Z,18.6
2019-01-25T03:21:11.885Z,19.2
2019-01-25T03:22:00.074Z,19.6
2019-01-25T03:22:49.859Z,19.9
2019-01-25T03:23:40.255Z,20.1
2019-01-25T03:24:30.308Z,20.3
2019-01-25T03:25:20.034Z,20.5
2019-01-25T03:26:10.378Z,20.7
2019-01-25T03:27:00.407Z,20.8
2019-01-25T03:27:50.462Z,20.9
2019-01-25T03:28:40.838Z,21.1
2019-01-25T03:30:21.199Z,21.2
2019-01-25T03:31:10.872Z,21.3
2019-01-25T03:32:00.967Z,21.4
2019-01-25T03:32:50.545Z,21.4
2019-01-25T03:33:40.336Z,21.5
2019-01-25T03:34:31.262Z,21.6
2019-01-25T03:35:21.039Z,21.6
2019-01-25T03:36:10.759Z,21.7
2019-01-25T03:37:00.226Z,21.3
2019-01-25T03:37:51.151Z,20.8
2019-01-25T03:38:41.261Z,20.4
2019-01-25T03:39:31.046Z,20
2019-01-25T03:40:21.602Z,19.8
2019-01-25T03:41:11.676Z,19.6
2019-01-25T03:42:01.111Z,19.4
2019-01-25T03:42:51.847Z,19.2
2019-01-25T03:43:41.560Z,19.1
2019-01-25T03:44:31.886Z,18.9
2019-01-25T03:45:21.375Z,18.9
2019-01-25T03:46:11.210Z,18.8
2019-01-25T03:47:51.687Z,18.5
2019-01-25T03:48:41.600Z,18.6
2019-01-25T03:49:31.997Z,19.1
2019-01-25T03:50:22.325Z,19.4
2019-01-25T03:51:12.082Z,19.8
2019-01-25T03:52:02.157Z,20.1
2019-01-25T03:52:51.338Z,20.3
2019-01-25T03:53:42.235Z,20.4
2019-01-25T03:54:32.305Z,20.6
2019-01-25T03:55:22.112Z,20.7
2019-01-25T03:56:12.680Z,20.8
2019-01-25T03:57:02.190Z,20.9
2019-01-25T03:57:52.294Z,21.1
2019-01-25T03:59:32.947Z,21.2
2019-01-25T04:00:22.447Z,21.3
2019-01-25T04:01:12.153Z,21.3
2019-01-25T04:02:02.536Z,21.4
2019-01-25T04:02:52.320Z,21.4
2019-01-25T04:03:43.164Z,21.5
2019-01-25T04:04:31.829Z,21.5
2019-01-25T04:05:23.034Z,21.6
2019-01-25T04:06:13.092Z,21.6
2019-01-25T04:07:02.841Z,21.3
2019-01-25T04:07:53.605Z,20.8
2019-01-25T04:08:42.984Z,20.3
2019-01-25T04:09:33.366Z,20
2019-01-25T04:10:23.110Z,19.8
2019-01-25T04:11:13.459Z,19.6
2019-01-25T04:12:03.243Z,19.4
2019-01-25T04:12:53.545Z,19.3
2019-01-25T04:13:43.071Z,19.1
2019-01-25T04:14:33.983Z,19
2019-01-25T04:15:23.402Z,18.9
2019-01-25T04:16:13.623Z,18.8
2019-01-25T04:17:03.802Z,18.8
2019-01-25T04:17:53.156Z,18.6
2019-01-25T04:18:44.266Z,18.5
2019-01-25T04:19:33.736Z,18.9
2019-01-25T04:20:24.440Z,19.4
2019-01-25T04:21:14.188Z,19.6
2019-01-25T04:22:04.169Z,19.9
2019-01-25T04:22:54.025Z,20.1
2019-01-25T04:23:44.603Z,20.3
2019-01-25T04:24:34.063Z,20.4
2019-01-25T04:25:24.889Z,20.6
2019-01-25T04:26:14.358Z,20.5
2019-01-25T04:27:04.230Z,20.1
2019-01-25T04:27:53.750Z,19.4
2019-01-25T04:28:44.045Z,18.9
2019-01-25T04:29:34.470Z,18.4
2019-01-25T04:30:24.874Z,17.8
2019-01-25T04:31:14.618Z,17.2
2019-01-25T04:32:04.846Z,16.6
2019-01-25T04:32:54.745Z,16.4
2019-01-25T04:33:45.234Z,16.4
2019-01-25T04:34:35.292Z,16.9
2019-01-25T04:35:25.254Z,17.5
2019-01-25T04:36:14.690Z,18.1
2019-01-25T04:37:04.692Z,18.6
2019-01-25T04:37:55.624Z,19.1
2019-01-25T04:38:45.649Z,19.5
2019-01-25T04:39:35.157Z,19.8
2019-01-25T04:40:25.495Z,20.1
2019-01-25T04:41:20.690Z,20.3
2019-01-25T04:42:05.819Z,20.5
2019-01-25T04:42:55.644Z,20.6
2019-01-25T04:43:45.387Z,20.8
2019-01-25T04:44:35.155Z,20.9
2019-01-25T04:45:25.797Z,21.1
2019-01-25T04:46:15.331Z,21.2
2019-01-25T04:47:05.096Z,21.3
2019-01-25T04:47:55.724Z,21.4
2019-01-25T04:48:45.749Z,21.5
2019-01-25T04:49:35.638Z,21.6
2019-01-25T04:50:27.771Z,21.6
2019-01-25T04:51:16.229Z,21.7
2019-01-25T04:52:05.099Z,21.8
2019-01-25T04:52:56.094Z,21.4
2019-01-25T04:53:46.471Z,20.9
2019-01-25T04:54:36.364Z,20.5
2019-01-25T04:55:25.605Z,20.2
2019-01-25T04:56:16.591Z,19.9
2019-01-25T04:57:06.915Z,19.6
2019-01-25T04:57:57.002Z,19.4
2019-01-25T04:58:45.902Z,19.3
2019-01-25T04:59:36.535Z,19.2
2019-01-25T05:00:26.886Z,19.1
2019-01-25T05:01:16.883Z,18.9
2019-01-25T05:02:06.931Z,18.8
2019-01-25T05:02:56.423Z,18.8
2019-01-25T05:03:47.107Z,18.6
2019-01-25T05:04:36.242Z,18.8
2019-01-25T05:05:26.908Z,19.3
2019-01-25T05:06:17.569Z,19.6
2019-01-25T05:07:07.333Z,19.9
2019-01-25T05:07:57.084Z,20.2
2019-01-25T05:08:47.098Z,20.4
2019-01-25T05:09:37.508Z,20.6
2019-01-25T05:10:27.515Z,20.8
2019-01-25T05:11:26.330Z,20.9
2019-01-25T05:12:07.902Z,21.1
2019-01-25T05:13:47.734Z,21.3
2019-01-25T05:14:37.538Z,21.3
2019-01-25T05:15:28.160Z,21.4
2019-01-25T05:16:17.997Z,21.5
2019-01-25T05:17:08.223Z,21.6
2019-01-25T05:17:58.324Z,21.6
2019-01-25T05:18:48.092Z,21.7
2019-01-25T05:19:38.123Z,21.6
2019-01-25T05:20:28.482Z,21.1
2019-01-25T05:21:18.639Z,20.6
2019-01-25T05:22:07.485Z,20.3
2019-01-25T05:22:57.554Z,19.9
2019-01-25T05:23:48.429Z,19.7
2019-01-25T05:24:38.509Z,19.6
2019-01-25T05:25:28.262Z,19.4
2019-01-25T05:26:18.840Z,19.2
2019-01-25T05:27:08.906Z,19.1
2019-01-25T05:27:58.109Z,19
2019-01-25T05:28:48.226Z,18.9
2019-01-25T05:29:38.257Z,18.8
2019-01-25T05:31:18.094Z,18.5
2019-01-25T05:32:08.978Z,18.9
2019-01-25T05:32:59.016Z,19.4
2019-01-25T05:33:49.109Z,19.7
2019-01-25T05:34:38.856Z,20
2019-01-25T05:35:29.268Z,20.2
2019-01-25T05:36:18.965Z,20.4
2019-01-25T05:37:08.781Z,20.6
2019-01-25T05:37:59.659Z,20.8
2019-01-25T05:38:49.425Z,20.9
2019-01-25T05:39:39.504Z,21
2019-01-25T05:41:19.603Z,21.2
2019-01-25T05:42:09.941Z,21.3
2019-01-25T05:42:59.965Z,21.4
2019-01-25T05:43:49.761Z,21.4
2019-01-25T05:44:39.809Z,21.5
2019-01-25T05:45:30.261Z,21.6
2019-01-25T05:46:19.980Z,21.6
2019-01-25T05:47:10.254Z,21.6
2019-01-25T05:47:59.787Z,21.4
2019-01-25T05:48:50.406Z,20.9
2019-01-25T05:49:40.429Z,20.5
2019-01-25T05:50:30.548Z,20.1
2019-01-25T05:51:20.261Z,19.9
2019-01-25T05:52:10.020Z,19.6
2019-01-25T05:53:00.717Z,19.4
2019-01-25T05:53:50.142Z,19.3
2019-01-25T05:54:39.640Z,19.1
2019-01-25T05:55:30.290Z,19.1
2019-01-25T05:56:20.347Z,18.9
2019-01-25T05:57:10.400Z,18.8
2019-01-25T05:58:00.707Z,18.8
2019-01-25T05:58:50.789Z,18.6
2019-01-25T05:59:40.539Z,18.5
2019-01-25T06:00:31.158Z,18.9
2019-01-25T06:01:20.969Z,19.3
2019-01-25T06:02:10.777Z,19.7
2019-01-25T06:03:00.851Z,19.9
2019-01-25T06:03:50.826Z,20.2
2019-01-25T06:06:38.441Z,20.7
2019-01-25T06:07:28.106Z,20.8
2019-01-25T06:08:17.641Z,20.9
2019-01-25T06:09:08.570Z,21.1
2019-01-25T06:10:48.609Z,21.2
2019-01-25T06:11:44.111Z,20.8
2019-01-25T06:12:29.024Z,20.1
2019-01-25T06:13:18.796Z,19.4
2019-01-25T06:14:09.384Z,19
2019-01-25T06:14:59.304Z,18.4
2019-01-25T06:15:49.284Z,17.7
2019-01-25T06:16:39.631Z,17.1
2019-01-25T06:17:29.085Z,16.9
2019-01-25T06:18:19.754Z,16.9
2019-01-25T06:19:09.233Z,17.4
2019-01-25T06:19:58.819Z,18.1
2019-01-25T06:20:49.649Z,18.6
2019-01-25T06:21:38.833Z,19.1
2019-01-25T06:22:29.178Z,19.5
2019-01-25T06:23:19.172Z,19.8
2019-01-25T06:24:09.803Z,20.1
2019-01-25T06:24:59.895Z,20.3
2019-01-25T06:25:49.453Z,20.5
2019-01-25T06:26:39.967Z,20.6
2019-01-25T06:27:29.735Z,20.8
2019-01-25T06:28:20.620Z,20.9
2019-01-25T06:30:00.463Z,21.2
2019-01-25T06:30:49.127Z,21.3
2019-01-25T06:31:39.809Z,21.4
2019-01-25T06:32:30.635Z,21.5
2019-01-25T06:33:20.505Z,21.6
2019-01-25T06:34:09.720Z,21.7
2019-01-25T06:35:00.675Z,21.8
2019-01-25T06:35:50.905Z,21.8
2019-01-25T06:36:40.970Z,21.2
2019-01-25T06:37:30.429Z,20.7
2019-01-25T06:38:19.350Z,20.3
2019-01-25T06:39:11.129Z,20
2019-01-25T06:39:59.737Z,19.8
2019-01-25T06:40:49.824Z,19.6
2019-01-25T06:41:49.483Z,19.4
2019-01-25T06:42:31.034Z,19.3
2019-01-25T06:43:21.139Z,19.1
2019-01-25T06:44:10.636Z,19
2019-01-25T06:45:00.386Z,18.9
2019-01-25T06:45:52.911Z,18.8
2019-01-25T06:46:40.320Z,18.6
2019-01-25T06:47:30.331Z,18.5
2019-01-25T06:48:20.459Z,18.9
2019-01-25T06:49:11.279Z,19.4
2019-01-25T06:50:00.864Z,19.7
2019-01-25T06:50:51.188Z,20
2019-01-25T06:51:41.456Z,20.3
2019-01-25T06:52:31.173Z,20.4
2019-01-25T06:53:21.549Z,20.6
2019-01-25T06:54:12.381Z,20.8
2019-01-25T06:55:01.348Z,20.9
2019-01-25T06:55:51.683Z,21
2019-01-25T06:56:42.018Z,21.1
2019-01-25T06:57:32.365Z,21.2
2019-01-25T06:58:22.126Z,21.3
2019-01-25T06:59:11.625Z,21.4
2019-01-25T07:00:02.588Z,21.4
2019-01-25T07:00:51.755Z,21.5
2019-01-25T07:01:42.673Z,21.6
2019-01-25T07:02:32.710Z,21.6
2019-01-25T07:03:22.730Z,21.7
2019-01-25T07:04:14.448Z,21.4
2019-01-25T07:06:38.560Z,20.2
2019-01-25T07:07:28.664Z,19.8
2019-01-25T07:08:18.815Z,19.6
2019-01-25T07:09:08.525Z,19.4
2019-01-25T07:09:59.417Z,19.3
2019-01-25T07:10:48.960Z,19.1
2019-01-25T07:11:54.082Z,19
2019-01-25T07:12:28.690Z,18.9
2019-01-25T07:13:18.806Z,18.8
2019-01-25T07:14:58.877Z,18.6
2019-01-25T07:15:49.509Z,18.6
2019-01-25T07:16:39.362Z,19.1
2019-01-25T07:17:28.759Z,19.4
2019-01-25T07:18:18.809Z,19.8
2019-01-25T07:19:09.734Z,20
2019-01-25T07:19:58.929Z,20.3
2019-01-25T07:20:50.076Z,20.4
2019-01-25T07:21:40.167Z,20.6
2019-01-25T07:22:29.411Z,20.8
2019-01-25T07:23:19.426Z,20.9
2019-01-25T07:24:09.491Z,21
2019-01-25T07:25:50.169Z,21.2
2019-01-25T07:26:39.934Z,21.3
2019-01-25T07:27:29.455Z,21.4
2019-01-25T07:28:19.498Z,21.4
2019-01-25T07:29:10.403Z,21.5
2019-01-25T07:30:00.620Z,21.6
2019-01-25T07:30:50.436Z,21.6
2019-01-25T07:31:41.504Z,21.4
2019-01-25T07:32:30.108Z,20.9
2019-01-25T07:33:20.819Z,20.4
2019-01-25T07:34:09.596Z,20.1
2019-01-25T07:34:59.950Z,19.8
2019-01-25T07:35:50.571Z,19.6
2019-01-25T07:36:41.264Z,19.4
2019-01-25T07:37:31.138Z,19.2
2019-01-25T07:38:20.483Z,19.1
2019-01-25T07:39:10.598Z,19
2019-01-25T07:40:02.244Z,18.9
2019-01-25T07:40:51.468Z,18.8
2019-01-25T07:42:30.951Z,18.6
2019-01-25T07:43:21.005Z,18.4
2019-01-25T07:44:12.034Z,18.9
2019-01-25T07:45:02.269Z,19.3
2019-01-25T07:45:52.480Z,19.6
2019-01-25T07:46:41.813Z,19.9
2019-01-25T07:47:33.788Z,20.1
2019-01-25T07:48:22.254Z,20.3
2019-01-25T07:49:12.473Z,20.5
2019-01-25T07:50:01.865Z,20.6
2019-01-25T07:50:52.450Z,20.8
2019-01-25T07:51:42.002Z,20.9
2019-01-25T07:52:32.605Z,21
2019-01-25T07:53:23.999Z,21.1
2019-01-25T07:55:01.905Z,21.3
2019-01-25T07:55:52.249Z,21.4
2019-01-25T07:56:42.275Z,21.4
2019-01-25T07:57:32.454Z,21.1
2019-01-25T07:58:22.477Z,20.5
2019-01-25T07:59:12.497Z,19.8
2019-01-25T08:00:02.717Z,19.2
2019-01-25T08:00:52.547Z,18.6
2019-01-25T08:01:42.830Z,17.9
2019-01-25T08:02:32.123Z,17.3
2019-01-25T08:03:22.136Z,17.3
2019-01-25T08:04:12.751Z,17.3
2019-01-25T08:05:03.362Z,17.9
2019-01-25T08:05:53.258Z,18.5
2019-01-25T08:06:41.952Z,19
2019-01-25T08:07:33.390Z,19.4
2019-01-25T08:08:23.077Z,19.8
2019-01-25T08:09:13.469Z,20.1
2019-01-25T08:10:04.301Z,20.3
2019-01-25T08:10:54.017Z,20.4
2019-01-25T08:11:42.624Z,20.6
2019-01-25T08:12:33.118Z,20.8
2019-01-25T08:13:23.793Z,20.9
2019-01-25T08:14:15.654Z,21
2019-01-25T08:15:54.094Z,21.3
2019-01-25T08:16:43.839Z,21.3
2019-01-25T08:17:33.634Z,21.4
2019-01-25T08:18:24.013Z,21.5
2019-01-25T08:19:14.317Z,21.6
2019-01-25T08:20:06.743Z,21.6
2019-01-25T08:21:45.371Z,20.6
2019-01-25T08:22:34.866Z,20.3
2019-01-25T08:23:25.077Z,19.9
2019-01-25T08:24:14.158Z,19.7
2019-01-25T08:25:05.131Z,19.5
2019-01-25T08:25:55.289Z,19.3
2019-01-25T08:26:46.092Z,19.2
2019-01-25T08:27:34.559Z,19
2019-01-25T08:28:24.887Z,18.9
2019-01-25T08:29:14.839Z,18.8
2019-01-25T08:30:05.018Z,18.8
2019-01-25T08:30:54.685Z,18.6
2019-01-25T08:31:45.025Z,18.5
2019-01-25T08:32:35.040Z,18.6
2019-01-25T08:33:25.752Z,19
2019-01-25T08:34:15.125Z,19.4
2019-01-25T08:35:05.867Z,19.7
2019-01-25T08:35:55.031Z,19.9
2019-01-25T08:36:45.262Z,20.2
2019-01-25T08:37:35.028Z,20.4
2019-01-25T08:38:25.947Z,20.6
2019-01-25T08:39:16.180Z,20.7
2019-01-25T08:40:05.683Z,20.8
2019-01-25T08:40:57.011Z,20.9
2019-01-25T08:41:45.794Z,21.1
2019-01-25T08:43:25.182Z,21.3
2019-01-25T08:44:15.922Z,21.3
2019-01-25T08:45:09.453Z,21.4
2019-01-25T08:45:58.678Z,21.4
2019-01-25T08:46:45.577Z,21.6
2019-01-25T08:47:36.087Z,21.6
2019-01-25T08:48:25.403Z,21.6
2019-01-25T08:49:16.110Z,21
2019-01-25T08:50:07.955Z,20.6
2019-01-25T08:50:56.502Z,20.2
2019-01-25T08:51:48.151Z,19.9
2019-01-25T08:52:37.036Z,19.7
2019-01-25T08:53:27.143Z,19.4
2019-01-25T08:54:18.042Z,19.3
2019-01-25T08:55:06.583Z,19.1
2019-01-25T08:55:57.054Z,19
2019-01-25T08:56:46.233Z,18.9
2019-01-25T08:57:37.149Z,18.8
2019-01-25T08:59:16.845Z,18.6
2019-01-25T09:00:06.689Z,18.4
2019-01-25T09:00:57.998Z,18.5
2019-01-25T09:01:45.440Z,18.9
2019-01-25T09:02:36.131Z,19.3
2019-01-25T09:03:26.063Z,19.6
2019-01-25T09:04:16.238Z,19.9
2019-01-25T09:05:06.909Z,20.1
2019-01-25T09:05:57.030Z,20.3
2019-01-25T09:06:46.830Z,20.4
2019-01-25T09:07:37.210Z,20.6
2019-01-25T09:08:27.252Z,20.8
2019-01-25T09:09:16.717Z,20.9
2019-01-25T09:10:07.374Z,20.9
2019-01-25T09:10:56.550Z,21
2019-01-25T09:11:46.622Z,21.1
2019-01-25T09:13:27.844Z,21.3
2019-01-25T09:14:17.137Z,21.3
2019-01-25T09:15:06.682Z,21.4
2019-01-25T09:15:57.190Z,21.4
2019-01-25T09:16:47.244Z,21.4
2019-01-25T09:17:37.268Z,20.9
2019-01-25T09:18:27.370Z,20.4
2019-01-25T09:19:16.337Z,20.1
2019-01-25T09:20:15.366Z,19.9
2019-01-25T09:20:58.672Z,19.6
2019-01-25T09:21:47.857Z,19.4
2019-01-25T09:22:37.696Z,19.3
2019-01-25T09:23:26.916Z,19.1
2019-01-25T09:24:18.599Z,19
2019-01-25T09:25:08.181Z,18.9
2019-01-25T09:26:05.178Z,18.8
2019-01-25T09:27:39.039Z,18.6
2019-01-25T09:28:27.738Z,18.4
2019-01-25T09:29:17.793Z,18.6
2019-01-25T09:30:08.678Z,19
2019-01-25T09:30:58.193Z,19.3
2019-01-25T09:31:49.116Z,19.6
2019-01-25T09:32:38.621Z,19.8
2019-01-25T09:33:29.123Z,20
2019-01-25T09:34:19.326Z,20.2
2019-01-25T09:35:10.815Z,20.4
2019-01-25T09:35:58.853Z,20.5
2019-01-25T09:36:49.254Z,20.6
2019-01-25T09:37:39.250Z,20.8
2019-01-25T09:38:29.305Z,20.8
2019-01-25T09:39:18.794Z,20.9
2019-01-25T09:40:09.388Z,21
2019-01-25T09:40:58.290Z,21.1
2019-01-25T09:42:39.883Z,20.8
2019-01-25T09:43:29.123Z,20.3
2019-01-25T09:44:19.442Z,19.5
2019-01-25T09:45:09.173Z,19
2019-01-25T09:45:59.775Z,18.4
2019-01-25T09:46:48.982Z,17.8
2019-01-25T09:47:38.548Z,17.2
2019-01-25T10:29:28.817Z,20.6
2019-01-25T10:29:39.310Z,21.1
2019-01-25T10:30:28.279Z,21.1
2019-01-25T10:32:09.849Z,21.2
2019-01-25T10:33:00.411Z,21.3
2019-01-25T10:33:49.630Z,21.4
2019-01-25T10:34:39.387Z,21.4
2019-01-25T10:35:28.964Z,21.5
2019-01-25T10:36:20.068Z,21.6
2019-01-25T10:37:09.823Z,21.6
2019-01-25T10:38:00.530Z,21.6
2019-01-25T10:38:50.247Z,21.1
2019-01-25T10:39:40.001Z,20.6
2019-01-25T10:40:30.068Z,20.2
2019-01-25T10:41:20.415Z,19.9
2019-01-25T10:42:11.105Z,19.8
2019-01-25T10:43:02.410Z,19.5
2019-01-25T10:43:51.792Z,19.4
2019-01-25T10:44:40.350Z,19.3
2019-01-25T10:45:30.696Z,19.1
2019-01-25T10:46:20.495Z,18.9
2019-01-25T10:47:11.199Z,18.8
2019-01-25T10:48:01.474Z,18.4
2019-01-25T10:48:50.076Z,18.1
2019-01-25T10:49:41.033Z,17.8
2019-01-25T10:50:31.341Z,17.8
2019-01-25T10:51:20.854Z,18.4
2019-01-25T10:52:13.034Z,18.9
2019-01-25T10:53:00.959Z,19.3
2019-01-25T10:53:51.241Z,19.6
2019-01-25T10:54:41.888Z,19.9
2019-01-25T10:55:31.940Z,20.2
2019-01-25T10:56:21.432Z,20.4
2019-01-25T10:57:11.481Z,20.6
2019-01-25T10:58:01.552Z,20.7
2019-01-25T10:58:51.589Z,20.8
2019-01-25T10:59:41.641Z,20.9
2019-01-25T11:00:32.002Z,21.1
2019-01-25T11:01:21.790Z,21.2
2019-01-25T11:02:12.094Z,21.3
2019-01-25T11:03:07.466Z,21.3
2019-01-25T11:03:54.050Z,21.4
2019-01-25T11:04:42.556Z,21.5
2019-01-25T11:05:32.089Z,21.5
2019-01-25T11:06:22.655Z,21.6
2019-01-25T11:07:12.795Z,21.6
2019-01-25T11:08:02.555Z,21.3
2019-01-25T11:08:54.389Z,20.9
2019-01-25T11:09:47.209Z,20.4
2019-01-25T11:10:32.697Z,20.1
2019-01-25T11:11:23.023Z,19.9
2019-01-25T11:12:13.097Z,19.6
2019-01-25T11:13:09.526Z,19.4
2019-01-25T11:13:53.199Z,19.2
2019-01-25T11:14:43.283Z,19.1
2019-01-25T11:15:32.739Z,19
2019-01-25T11:16:23.066Z,18.9
2019-01-25T11:17:13.153Z,18.8
2019-01-25T11:18:52.983Z,18.5
2019-01-25T11:19:42.763Z,18.5
2019-01-25T11:20:33.440Z,18.9
2019-01-25T11:21:23.501Z,19.4
2019-01-25T11:22:12.616Z,19.6
2019-01-25T11:23:03.578Z,19.9
2019-01-25T11:23:53.313Z,20.1
2019-01-25T11:24:43.375Z,20.3
2019-01-25T11:25:33.736Z,20.4
2019-01-25T11:26:23.752Z,20.6
2019-01-25T11:27:13.775Z,20.8
2019-01-25T11:28:04.170Z,20.8
2019-01-25T11:28:53.955Z,20.4
2019-01-25T11:29:44.257Z,19.8
2019-01-25T11:30:33.620Z,19.2
2019-01-25T11:32:14.197Z,18.1
2019-01-25T11:33:04.510Z,17.4
2019-01-25T11:33:53.705Z,16.9
2019-01-25T11:34:44.584Z,16.6
2019-01-25T11:35:34.082Z,16.6
2019-01-25T11:36:24.149Z,17.1
2019-01-25T11:37:14.010Z,17.8
2019-01-25T11:38:04.378Z,18.3
2019-01-25T11:38:54.115Z,18.8
2019-01-25T11:39:43.910Z,19.3
2019-01-25T11:40:34.502Z,19.7
2019-01-25T11:41:25.109Z,19.9
2019-01-25T11:42:14.599Z,20.3
2019-01-25T11:43:12.736Z,20.4
2019-01-25T11:43:55.007Z,20.7
2019-01-25T11:44:44.508Z,20.9
2019-01-25T11:45:35.110Z,20.9
2019-01-25T11:46:25.475Z,21.1
2019-01-25T11:47:15.464Z,21.2
2019-01-25T11:48:06.972Z,21.3
2019-01-25T11:48:54.992Z,21.4
2019-01-25T11:49:45.111Z,21.4
2019-01-25T11:50:35.681Z,21.5
2019-01-25T11:51:27.017Z,21.6
2019-01-25T11:52:15.161Z,21.6
2019-01-25T11:53:05.332Z,21.7
2019-01-25T11:53:55.939Z,21.8
2019-01-25T11:54:45.717Z,21.4
2019-01-25T11:55:35.449Z,20.9
2019-01-25T11:56:25.301Z,20.4
2019-01-25T11:57:16.136Z,20.1
2019-01-25T11:58:06.234Z,19.9
2019-01-25T11:58:56.256Z,19.6
2019-01-25T11:59:46.305Z,19.4
2019-01-25T12:00:36.433Z,19.3
2019-01-25T12:01:25.655Z,19.1
2019-01-25T12:02:23.628Z,19
2019-01-25T12:03:06.301Z,18.8
2019-01-25T12:03:56.621Z,18.8
2019-01-25T12:05:36.161Z,18.6
2019-01-25T12:07:37.618Z,19.2
2019-01-25T12:08:28.475Z,19.6
2019-01-25T12:09:18.523Z,19.9
2019-01-25T12:10:08.842Z,20.2
2019-01-25T12:10:58.878Z,20.4
2019-01-25T12:11:48.956Z,20.6
2019-01-25T12:12:38.832Z,20.8
2019-01-25T12:13:29.073Z,20.9
2019-01-25T12:14:19.115Z,20.9
2019-01-25T12:15:09.218Z,21.1
2019-01-25T12:15:59.847Z,21.2
2019-01-25T12:16:49.120Z,21.3
2019-01-25T12:17:38.010Z,21.4
2019-01-25T12:18:29.939Z,21.4
2019-01-25T12:19:18.982Z,21.6
2019-01-25T12:20:09.235Z,21.6
2019-01-25T12:20:58.767Z,21.6